• Join FlightAware (Why Join?)
  • Login
  • US Flag 
05:42PM EST


 

Airport Tracker/Info


-or-


 

Live Flight TrackerFlight Track Log ✈ UPS1083 ✈ 15-Apr-2014 ✈ KEWR - KSDF

Flight Track Log - Related Links

Times and Time Zones

All times are in EDT time to prevent confusion due to time zone crossing. See the UPS1083 flight status page for this flight to view local times or setup timezone preferences in your user account.

Time Position Orientation Groundspeed Altitude Reporting Facility
EDT Latitude Longitude Course Direction KTS MPH feet Rate Location/Type
12:26AM 40.7988 -74.5092 254° West 374 430 16,700  Level FlightAware ADS-B (KPHL)
12:27AM 40.7637 -74.6108 244° Southwest 364 419 17,100 1,320 Climbing FlightAware ADS-B (KPHL)
12:27AM 40.7319 -74.6933 244° Southwest 369 425 18,700 2,580 Climbing FlightAware ADS-B (KPHL)
12:28AM 40.7002 -74.7851 251° West 399 459 20,800 3,300 Climbing FlightAware ADS-B (KPHL)
12:30AM 40.6415 -75.0047 251° West 406 467 27,200 3,480 Climbing FlightAware ADS-B (KPHL)
12:31AM 40.6101 -75.1220 251° West 403 464 29,800 3,540 Climbing FlightAware ADS-B (KPHL)
12:31AM 40.5872 -75.2079 250° West 389 448 31,700 3,540 Climbing FlightAware ADS-B (KPHL)
12:32AM 40.5692 -75.2729 250° West 379 436 33,400 2,760 Climbing FlightAware ADS-B (KPHL)
12:32AM 40.5424 -75.3688 250° West 362 417 35,200 2,040 Climbing FlightAware ADS-B (KPHL)
12:33AM 40.5261 -75.4291 251° West 329 379 36,000 600 Climbing FlightAware ADS-B (KPHL)
12:34AM 40.5038 -75.5110 250° West 333 383 36,000  Level FlightAware ADS-B (KPHL)
12:34AM 40.4876 -75.5697 250° West 335 386 36,000  Level FlightAware ADS-B (KPHL)
12:35AM 40.4650 -75.6517 250° West 337 388 36,000  Level FlightAware ADS-B (KPHL)
12:35AM 40.4486 -75.7095 250° West 337 388 36,000  Level FlightAware ADS-B (KPHL)
12:36AM 40.4319 -75.7688 250° West 339 390 36,000  Level FlightAware ADS-B (KPHL)
12:36AM 40.4154 -75.8286 250° West 341 392 36,000  Level FlightAware ADS-B (KPHL)
12:37AM 40.3911 -75.9157 250° West 342 394 36,000  Level FlightAware ADS-B (KPHL)
12:37AM 40.3879 -75.9274 249° West 343 395 36,000  Level FlightAware ADS-B
12:38AM 40.3666 -76.0021 250° West 349 402 36,000  Level FlightAware ADS-B (KPHL)
12:38AM 40.3690 -75.9940 250° West 349 402 36,000  Level FlightAware ADS-B (VOML / IXE)
12:38AM 40.3511 -76.0581 250° West 350 403 36,000  Level FlightAware ADS-B (KPHL)
12:39AM 40.3520 -76.0550 250° West 350 403 36,000  Level FlightAware ADS-B (VOML / IXE)
12:39AM 40.3242 -76.1524 250° West 352 405 36,000  Level FlightAware ADS-B (KPHL)
12:40AM 40.3150 -76.1840 250° West 354 407 36,000  Level FlightAware ADS-B (VOML / IXE)
12:40AM 40.3074 -76.2119 250° West 355 409 36,000  Level FlightAware ADS-B (KPHL)
12:40AM 40.3018 -76.2318 251° West 359 413 36,000  Level FlightAware ADS-B (YXSG)
12:40AM 40.3040 -76.2230 250° West 357 411 36,000  Level FlightAware ADS-B (VOML / IXE)
12:40AM 40.2855 -76.3077 256° West 365 420 36,000  Level FlightAware ADS-B (KPHL)
12:41AM 40.2960 -76.2560 254° West 362 417 36,000  Level FlightAware ADS-B (VOML / IXE)
12:41AM 40.2723 -76.3729 255° West 366 421 36,000  Level FlightAware ADS-B (KPHL)
12:41AM 40.2790 -76.3390 256° West 366 421 36,000  Level FlightAware ADS-B (VOML / IXE)
12:42AM 40.2640 -76.4120 255° West 367 422 36,000  Level FlightAware ADS-B (VOML / IXE)
12:42AM 40.2542 -76.4603 255° West 369 425 36,000  Level FlightAware ADS-B (KPHL)
12:42AM 40.2332 -76.5606 255° West 371 427 36,000  Level FlightAware ADS-B (KPHL)
12:43AM 40.2189 -76.6299 255° West 370 426 36,000  Level FlightAware ADS-B (KPHL)
12:43AM 40.2057 -76.6929 255° West 371 427 36,000  Level FlightAware ADS-B (KPHL)
12:44AM 40.1923 -76.7555 254° West 371 427 36,000  Level FlightAware ADS-B (KPHL)
12:44AM 40.1773 -76.8256 255° West 374 430 36,000  Level FlightAware ADS-B (YXSG)
12:45AM 40.1632 -76.8929 255° West 377 434 36,000  Level FlightAware ADS-B (YXSG)
12:46AM 40.1262 -77.0679 254° West 380 437 36,000  Level FlightAware ADS-B (YXSG)
12:47AM 40.1123 -77.1325 255° West 381 438 36,100  Climbing FlightAware ADS-B (KPHL)
12:49AM 40.0360 -77.4853 254° West 396 456 36,000 -60 Descending FlightAware ADS-B (KPHL)
12:50AM 40.0206 -77.5565 254° West 398 458 36,000  Level FlightAware ADS-B (KPHL)
12:50AM 40.0044 -77.6298 254° West 402 463 36,000  Level FlightAware ADS-B (KPHL)
12:51AM 39.9832 -77.7264 254° West 406 467 36,000  Level FlightAware ADS-B (KPHL)
12:52AM 39.9631 -77.8178 254° West 402 463 36,000  Level Cleveland Center
12:53AM 39.9311 -77.9592 254° West 405 466 36,000  Level Cleveland Center
12:54AM 39.8872 -78.0936 247° West 405 466 36,000  Level Cleveland Center
12:55AM 39.8436 -78.2292 247° West 406 467 36,000 -60 Level Cleveland Center
12:56AM 39.8039 -78.3517 247° West 406 467 35,900  Descending Cleveland Center
12:57AM 39.7550 -78.5000 247° West 407 468 36,000  Climbing Cleveland Center
12:58AM 39.7103 -78.6369 247° West 410 472 36,000  Level Cleveland Center
12:59AM 39.6658 -78.7722 247° West 410 472 36,000 -60 Level Cleveland Center
01:00AM 39.6208 -78.9061 246° West 409 471 35,900 -60 Descending Cleveland Center
01:01AM 39.5792 -79.0317 247° West 407 468 35,900  Level Cleveland Center
01:02AM 39.5339 -79.1664 246° West 407 468 36,000  Climbing Cleveland Center
01:03AM 39.4889 -79.3017 247° West 408 470 36,000  Level Cleveland Center
01:04AM 39.4431 -79.4347 246° West 406 467 36,000 -60 Level Cleveland Center
01:05AM 39.3981 -79.5675 246° West 405 466 35,900  Descending Cleveland Center
01:06AM 39.3528 -79.6997 246° West 404 465 36,000  Climbing Cleveland Center
01:07AM 39.3075 -79.8317 246° West 403 464 36,000  Level Cleveland Center
01:08AM 39.2619 -79.9639 246° West 403 464 36,000  Level Cleveland Center
01:10AM 39.1778 -80.2069 246° West 404 465 36,000  Level Indianapolis Center
01:11AM 39.1322 -80.3378 246° West 403 464 36,000 -60 Level Indianapolis Center
01:12AM 39.0864 -80.4675 246° West 401 461 35,900  Descending Indianapolis Center
01:13AM 39.0392 -80.6022 246° West 401 461 36,000  Climbing Indianapolis Center
01:14AM 38.9944 -80.7292 246° West 401 461 36,000  Level Indianapolis Center
01:15AM 38.9483 -80.8589 245° Southwest 400 460 36,000  Level Indianapolis Center
01:16AM 38.9019 -80.9881 245° Southwest 399 459 36,000  Level Indianapolis Center
01:17AM 38.8558 -81.1169 245° Southwest 398 458 36,000  Level Indianapolis Center
01:18AM 38.8094 -81.2450 245° Southwest 397 457 36,000  Level Indianapolis Center
01:19AM 38.7636 -81.3722 245° Southwest 396 456 36,000  Level Indianapolis Center
01:20AM 38.7169 -81.5008 245° Southwest 395 455 36,000  Level Indianapolis Center
01:21AM 38.6653 -81.6422 245° Southwest 395 455 36,000  Level Indianapolis Center
01:22AM 38.6189 -81.7683 245° Southwest 397 457 36,000  Level Indianapolis Center
01:23AM 38.5717 -81.8975 245° Southwest 398 458 36,100  Climbing Indianapolis Center
01:24AM 38.5244 -82.0253 245° Southwest 398 458 36,000 -60 Descending Indianapolis Center
01:25AM 38.4769 -82.1519 244° Southwest 397 457 36,000 -60 Level Indianapolis Center
01:26AM 38.4303 -82.2772 245° Southwest 395 455 35,900 -60 Descending Indianapolis Center
01:27AM 38.3836 -82.4022 245° Southwest 393 452 35,900  Level Indianapolis Center
01:28AM 38.3375 -82.5247 244° Southwest 392 451 36,000  Climbing Indianapolis Center
01:29AM 38.2900 -82.6514 244° Southwest 394 453 36,000 -120 Level Indianapolis Center
01:30AM 38.2419 -82.7781 244° Southwest 396 456 35,800 -360 Descending Indianapolis Center
01:31AM 38.1942 -82.9036 244° Southwest 395 455 35,300 -480 Descending Indianapolis Center
01:32AM 38.1575 -83.0319 250° West 391 450 34,900 -480 Descending Indianapolis Center
01:33AM 38.1250 -83.1614 252° West 387 445 34,400 -540 Descending Indianapolis Center
01:34AM 38.0911 -83.2936 252° West 394 453 33,900 -540 Descending Indianapolis Center
01:35AM 38.0567 -83.4283 252° West 397 457 33,400 -1,320 Descending Indianapolis Center
01:41AM 37.8314 -84.2962 251° West 405 466 24,300 -1,680 Descending FlightAware ADS-B (KCVG)
01:42AM 37.7878 -84.4598 251° West 386 444 20,900 -2,880 Descending FlightAware ADS-B (KCVG)
01:43AM 37.7601 -84.5624 251° West 381 438 18,500 -3,000 Descending FlightAware ADS-B
01:44AM 37.7260 -84.6896 252° West 376 433 15,600 -2,880 Descending FlightAware ADS-B
01:45AM 37.6929 -84.8122 251° West 366 421 12,800 -2,580 Descending FlightAware ADS-B
01:46AM 37.6791 -84.8623 257° West 348 400 10,800 -1,080 Descending FlightAware ADS-B
01:48AM 37.7488 -85.0845 313° West 256 295 9,700 -540 Descending FlightAware ADS-B
01:49AM 37.7824 -85.1687 288° West 258 297 9,200 -600 Descending FlightAware ADS-B
01:50AM 37.8049 -85.2524 287° West 245 282 8,600 -600 Descending FlightAware ADS-B
01:51AM 37.8251 -85.3337 288° West 242 278 8,100 -540 Descending FlightAware ADS-B
01:52AM 37.8415 -85.3973 288° West 240 276 7,700 -540 Descending FlightAware ADS-B (EPWR / WRO)
01:52AM 37.8495 -85.4270 289° West 238 274 7,500 -960 Descending FlightAware ADS-B
01:53AM 37.8696 -85.5071 287° West 236 272 6,400 -720 Descending FlightAware ADS-B
01:54AM 37.8897 -85.5861 287° West 216 249 6,100 -540 Descending FlightAware ADS-B
01:55AM 37.9075 -85.6495 303° West 216 249 5,400 -840 Descending FlightAware ADS-B (EPWR / WRO)
01:55AM 37.9118 -85.6553 322° Northwest 211 243 5,300 -1,200 Descending FlightAware ADS-B
01:55AM 37.9151 -85.6581 339° North 208 239 5,200 -840 Descending FlightAware ADS-B (EPWR / WRO)
01:56AM 37.9295 -85.6639 346° North 208 239 5,000 -960 Descending FlightAware ADS-B (EPWR / WRO)
01:56AM 37.9461 -85.6694 345° North 213 245 4,700 -1,260 Descending FlightAware ADS-B (EPWR / WRO)
01:56AM 37.9689 -85.6771 346° North 212 244 4,200 -1,200 Descending FlightAware ADS-B
01:57AM 38.0224 -85.6946 346° North 197 227 3,100 -1,140 Descending FlightAware ADS-B
01:58AM 38.0719 -85.7109 345° North 155 178 2,000 -1,020 Descending FlightAware ADS-B
01:59AM 38.1085 -85.7230 345° North 146 168 1,200 -840 Descending FlightAware ADS-B
02:00AM 38.1172 -85.7259 346° North 148 170 800 -900 Descending FlightAware ADS-B
02:08AM 38.1667 -85.7333 208° Southwest  Level FlightAware Approximate
02:09AM 38.1741 -85.7365 208° Southwest  Level Estimated